createdAt,value
2022-09-26T00:01:44.326Z,9.27
2022-09-26T00:04:22.727Z,9.13
2022-09-26T00:06:57.071Z,9.09
2022-09-26T00:09:28.160Z,9.07
2022-09-26T00:11:56.434Z,8.95
2022-09-26T00:14:27.350Z,8.97
2022-09-26T00:16:55.911Z,8.80
2022-09-26T00:19:25.453Z,8.77
2022-09-26T00:21:55.437Z,8.83
2022-09-26T00:24:23.769Z,8.75
2022-09-26T00:26:52.687Z,8.62
2022-09-26T00:29:20.974Z,8.66
2022-09-26T00:31:49.370Z,8.55
2022-09-26T00:34:20.442Z,8.52
2022-09-26T00:36:48.778Z,8.29
2022-09-26T00:39:19.320Z,8.41
2022-09-26T00:41:47.692Z,8.41
2022-09-26T00:44:43.621Z,8.43
2022-09-26T00:47:29.240Z,8.23
2022-09-26T00:50:01.998Z,8.13
2022-09-26T00:52:34.849Z,8.21
2022-09-26T00:55:07.357Z,8.12
2022-09-26T00:57:41.868Z,8.12
2022-09-26T01:00:15.146Z,8.17
2022-09-26T01:02:45.385Z,8.14
2022-09-26T01:05:17.426Z,8.15
2022-09-26T01:07:46.569Z,8.32
2022-09-26T01:10:17.808Z,8.28
2022-09-26T01:12:46.043Z,8.19
2022-09-26T01:15:14.494Z,8.22
2022-09-26T01:17:45.837Z,8.22
2022-09-26T01:20:26.557Z,8.09
2022-09-26T01:23:43.688Z,8.08
2022-09-26T01:26:50.442Z,8.22
2022-09-26T01:29:37.085Z,8.18
2022-09-26T01:32:32.915Z,7.94
2022-09-26T01:35:08.715Z,8.13
2022-09-26T01:37:46.865Z,7.93
2022-09-26T01:40:23.217Z,7.95
2022-09-26T01:43:06.040Z,8.10
2022-09-26T01:45:44.063Z,8.06
2022-09-26T01:48:18.571Z,7.89
2022-09-26T01:50:52.224Z,7.93
2022-09-26T01:53:25.633Z,7.63
2022-09-26T01:55:58.111Z,7.82
2022-09-26T01:58:30.816Z,7.83
2022-09-26T02:01:03.498Z,7.74
2022-09-26T02:03:38.157Z,7.72
2022-09-26T02:06:11.712Z,7.80
2022-09-26T02:08:43.402Z,7.67
2022-09-26T02:11:17.415Z,7.70
2022-09-26T02:13:52.082Z,7.55
2022-09-26T02:16:27.353Z,7.52
2022-09-26T02:19:00.866Z,7.41
2022-09-26T02:21:29.287Z,7.46
2022-09-26T02:23:57.583Z,7.31
2022-09-26T02:26:26.413Z,7.46
2022-09-26T02:28:54.572Z,7.50
2022-09-26T02:31:27.517Z,7.52
2022-09-26T02:33:58.928Z,7.62
2022-09-26T02:36:27.361Z,7.54
2022-09-26T02:38:55.465Z,7.50
2022-09-26T02:41:30.429Z,7.63
2022-09-26T02:44:22.478Z,7.68
2022-09-26T02:47:19.306Z,7.74
2022-09-26T02:50:21.862Z,7.66
2022-09-26T02:53:01.352Z,7.63
2022-09-26T02:55:41.360Z,7.47
2022-09-26T02:58:19.273Z,7.53
2022-09-26T03:01:00.989Z,7.56
2022-09-26T03:03:35.346Z,7.66
2022-09-26T03:06:10.750Z,7.47
2022-09-26T03:08:44.301Z,7.43
2022-09-26T03:11:17.096Z,7.52
2022-09-26T03:13:47.795Z,7.62
2022-09-26T03:16:16.577Z,7.68
2022-09-26T03:18:55.223Z,7.77
2022-09-26T03:21:25.687Z,7.71
2022-09-26T03:23:53.796Z,7.76
2022-09-26T03:26:24.864Z,7.76
2022-09-26T03:28:53.227Z,7.79
2022-09-26T03:31:22.527Z,7.80
2022-09-26T03:33:51.127Z,7.74
2022-09-26T03:36:19.873Z,7.84
2022-09-26T03:38:49.988Z,7.87
2022-09-26T03:41:18.687Z,7.87
2022-09-26T03:43:47.030Z,7.86
2022-09-26T03:46:16.030Z,7.81
2022-09-26T03:48:44.804Z,7.87
2022-09-26T03:51:14.958Z,7.98
2022-09-26T03:53:45.596Z,7.91
2022-09-26T03:56:17.151Z,7.74
2022-09-26T03:58:47.000Z,7.91
2022-09-26T04:01:17.637Z,7.99
2022-09-26T04:03:50.515Z,7.88
2022-09-26T04:06:21.342Z,8.01
2022-09-26T04:08:51.931Z,8.08
2022-09-26T04:11:24.812Z,8.03
2022-09-26T04:13:54.221Z,8.06
2022-09-26T04:16:24.295Z,8.12
2022-09-26T04:18:58.064Z,8.14
2022-09-26T04:21:27.510Z,8.14
2022-09-26T04:23:56.789Z,8.26
2022-09-26T04:26:26.617Z,8.16
2022-09-26T04:28:57.315Z,8.20
2022-09-26T04:31:27.868Z,8.32
2022-09-26T04:33:56.453Z,8.27
2022-09-26T04:36:24.945Z,8.26
2022-09-26T04:38:53.189Z,8.15
2022-09-26T04:41:23.087Z,8.24
2022-09-26T04:43:55.644Z,8.30
2022-09-26T04:46:30.180Z,8.31
2022-09-26T04:49:01.804Z,8.37
2022-09-26T04:51:31.693Z,8.42
2022-09-26T04:54:00.413Z,8.31
2022-09-26T04:56:30.746Z,8.41
2022-09-26T04:59:01.189Z,8.44
2022-09-26T05:01:29.874Z,8.56
2022-09-26T05:03:58.559Z,8.64
2022-09-26T05:06:27.161Z,8.57
2022-09-26T05:08:55.402Z,8.57
2022-09-26T05:11:24.715Z,8.75
2022-09-26T05:13:53.923Z,8.49
2022-09-26T05:16:24.231Z,8.72
2022-09-26T05:18:52.958Z,8.87
2022-09-26T05:21:21.529Z,8.76
2022-09-26T05:24:07.359Z,8.60
2022-09-26T05:26:43.280Z,8.76
2022-09-26T05:29:12.339Z,8.80
2022-09-26T05:31:43.741Z,8.88
2022-09-26T05:34:19.924Z,8.84
2022-09-26T05:36:49.618Z,8.85
2022-09-26T05:39:31.686Z,8.82
2022-09-26T05:42:00.851Z,8.92
2022-09-26T05:44:31.032Z,8.87
2022-09-26T05:47:01.494Z,8.87
2022-09-26T05:49:29.870Z,8.94
2022-09-26T05:51:58.633Z,8.96
2022-09-26T05:54:26.943Z,8.82
2022-09-26T05:56:56.251Z,8.87
2022-09-26T05:59:26.269Z,8.95
2022-09-26T06:01:55.092Z,8.99
2022-09-26T06:04:24.872Z,9.02
2022-09-26T06:06:53.004Z,8.88
2022-09-26T06:09:21.304Z,8.88
2022-09-26T06:11:50.252Z,9.06
2022-09-26T06:14:18.689Z,9.07
2022-09-26T06:16:47.214Z,9.16
2022-09-26T06:19:18.443Z,9.11
2022-09-26T06:21:52.241Z,9.07
2022-09-26T06:24:22.926Z,9.03
2022-09-26T06:26:51.383Z,8.98
2022-09-26T06:29:20.242Z,9.08
2022-09-26T06:31:48.699Z,9.00
2022-09-26T06:34:16.911Z,9.21
2022-09-26T06:36:47.144Z,9.18
2022-09-26T06:39:18.015Z,9.12
2022-09-26T06:41:46.224Z,9.13
2022-09-26T06:44:14.730Z,9.23
2022-09-26T06:46:43.711Z,9.38
2022-09-26T06:49:12.226Z,9.36
2022-09-26T06:51:41.386Z,9.48
2022-09-26T06:54:10.425Z,9.51
2022-09-26T06:56:40.484Z,9.58
2022-09-26T06:59:08.930Z,9.52
2022-09-26T07:01:37.421Z,9.56
2022-09-26T07:04:06.282Z,9.66
2022-09-26T07:06:35.138Z,9.72
2022-09-26T07:09:07.457Z,9.69
2022-09-26T07:12:13.081Z,9.67
2022-09-26T07:14:34.862Z,9.85
2022-09-26T07:17:03.277Z,10.02
2022-09-26T07:19:31.845Z,10.04
2022-09-26T07:22:00.257Z,10.08
2022-09-26T07:24:28.308Z,10.25
2022-09-26T07:26:58.161Z,10.27
2022-09-26T07:29:27.224Z,10.44
2022-09-26T07:31:55.655Z,10.20
2022-09-26T07:34:25.266Z,10.38
2022-09-26T07:36:54.375Z,10.32
2022-09-26T07:39:23.195Z,10.34
2022-09-26T07:41:51.752Z,10.31
2022-09-26T07:47:29.607Z,10.51
2022-09-26T07:50:15.257Z,10.51
2022-09-26T07:52:44.802Z,10.46
2022-09-26T07:55:17.030Z,10.65
2022-09-26T07:57:48.613Z,10.76
2022-09-26T08:00:23.623Z,10.80
2022-09-26T08:02:53.060Z,10.93
2022-09-26T08:05:24.528Z,11.02
2022-09-26T08:07:53.106Z,10.96
2022-09-26T08:10:24.170Z,10.83
2022-09-26T08:12:52.263Z,11.13
2022-09-26T08:15:22.482Z,11.30
2022-09-26T08:17:52.100Z,11.37
2022-09-26T08:20:20.783Z,11.66
2022-09-26T08:22:49.644Z,11.65
2022-09-26T08:25:18.358Z,11.82
2022-09-26T08:27:46.799Z,12.17
2022-09-26T08:30:15.254Z,12.08
2022-09-26T08:32:45.268Z,12.43
2022-09-26T08:35:15.143Z,12.54
2022-09-26T08:37:43.241Z,12.65
2022-09-26T08:40:12.669Z,12.80
2022-09-26T08:42:53.751Z,12.52
2022-09-26T08:45:57.786Z,13.07
2022-09-26T08:48:43.113Z,13.11
2022-09-26T08:51:28.274Z,13.13
2022-09-26T08:54:03.676Z,13.18
2022-09-26T08:56:36.445Z,13.04
2022-09-26T08:59:13.544Z,13.08
2022-09-26T09:01:46.910Z,13.15
2022-09-26T09:04:22.276Z,13.29
2022-09-26T09:07:00.260Z,13.11
2022-09-26T09:09:28.609Z,13.34
2022-09-26T09:12:09.977Z,13.36
2022-09-26T09:15:20.404Z,13.32
2022-09-26T09:17:56.544Z,13.44
2022-09-26T09:20:40.266Z,13.41
2022-09-26T09:23:23.842Z,13.49
2022-09-26T09:29:10.360Z,13.55
2022-09-26T09:31:42.294Z,13.34
2022-09-26T09:34:16.892Z,13.43
2022-09-26T09:36:49.662Z,13.26
2022-09-26T09:39:28.159Z,13.38
2022-09-26T09:42:01.512Z,13.24
2022-09-26T09:44:45.773Z,13.62
2022-09-26T09:47:16.502Z,13.60
2022-09-26T09:49:46.043Z,13.83
2022-09-26T09:52:42.666Z,14.24
2022-09-26T09:55:32.299Z,14.27
2022-09-26T09:58:20.136Z,14.70
2022-09-26T10:01:00.882Z,14.97
2022-09-26T10:03:37.959Z,14.97
2022-09-26T10:06:44.188Z,14.27
2022-09-26T10:09:38.584Z,14.32
2022-09-26T10:11:52.667Z,14.18
2022-09-26T10:14:31.595Z,14.27
2022-09-26T10:17:21.427Z,14.09
2022-09-26T10:19:51.665Z,14.24
2022-09-26T10:22:26.252Z,14.12
2022-09-26T10:25:04.395Z,14.61
2022-09-26T10:27:39.109Z,14.36
2022-09-26T10:30:26.765Z,14.53
2022-09-26T10:32:59.052Z,14.17
2022-09-26T10:35:29.892Z,14.02
2022-09-26T10:38:03.518Z,14.09
2022-09-26T10:40:48.034Z,13.88
2022-09-26T10:43:30.816Z,14.08
2022-09-26T10:46:10.432Z,13.93
2022-09-26T10:48:49.061Z,13.98
2022-09-26T10:51:29.219Z,13.87
2022-09-26T10:54:05.944Z,13.77
2022-09-26T10:56:45.581Z,13.91
2022-09-26T10:59:17.838Z,14.03
2022-09-26T11:01:51.726Z,14.20
2022-09-26T11:04:38.958Z,14.10
2022-09-26T11:07:10.113Z,14.29
2022-09-26T11:09:39.897Z,14.13
2022-09-26T11:12:27.780Z,14.11
2022-09-26T11:15:00.367Z,13.97
2022-09-26T11:17:48.129Z,13.68
2022-09-26T11:20:36.884Z,13.89
2022-09-26T11:23:19.271Z,13.81
2022-09-26T11:26:00.560Z,14.01
2022-09-26T11:28:40.536Z,14.22
2022-09-26T11:31:19.224Z,14.15
2022-09-26T11:33:47.609Z,14.04
2022-09-26T11:36:47.363Z,13.94
2022-09-26T11:39:34.196Z,14.24
2022-09-26T11:42:16.608Z,14.30
2022-09-26T11:44:58.641Z,13.94
2022-09-26T11:47:56.602Z,13.99
2022-09-26T11:50:39.819Z,14.04
2022-09-26T11:53:33.678Z,14.13
2022-09-26T11:56:22.210Z,13.89
2022-09-26T11:59:02.442Z,13.77
2022-09-26T12:01:48.909Z,13.64
2022-09-26T12:04:56.272Z,13.58
2022-09-26T12:07:33.757Z,13.47
2022-09-26T12:10:19.738Z,13.31
2022-09-26T12:13:01.427Z,13.27
2022-09-26T12:15:39.878Z,13.31
2022-09-26T12:18:21.809Z,13.23
2022-09-26T12:21:11.979Z,13.28
2022-09-26T12:23:48.895Z,13.29
2022-09-26T12:26:22.606Z,13.26
2022-09-26T12:29:22.465Z,13.34
2022-09-26T12:32:04.966Z,13.50
2022-09-26T12:34:57.883Z,13.51
2022-09-26T12:37:45.359Z,13.67
2022-09-26T12:40:33.069Z,13.51
2022-09-26T12:43:21.876Z,13.44
2022-09-26T12:46:06.306Z,13.41
2022-09-26T12:49:02.234Z,13.39
2022-09-26T12:51:43.026Z,13.40
2022-09-26T12:54:46.068Z,13.31
2022-09-26T12:57:27.658Z,13.37
2022-09-26T13:00:12.919Z,13.49
2022-09-26T13:03:15.179Z,13.17
2022-09-26T13:06:13.729Z,13.07
2022-09-26T13:08:57.688Z,13.05
2022-09-26T13:11:35.948Z,12.91
2022-09-26T13:14:27.466Z,12.52
2022-09-26T13:17:10.375Z,12.40
2022-09-26T13:19:43.696Z,12.08
2022-09-26T13:22:27.578Z,12.06
2022-09-26T13:25:04.260Z,11.98
2022-09-26T13:27:38.552Z,11.93
2022-09-26T13:30:14.370Z,12.14
2022-09-26T13:32:53.562Z,12.04
2022-09-26T13:35:23.686Z,12.26
2022-09-26T13:38:09.722Z,12.43
2022-09-26T13:40:45.705Z,12.46
2022-09-26T13:43:26.274Z,12.41
2022-09-26T13:46:02.300Z,12.69
2022-09-26T13:48:50.367Z,12.64
2022-09-26T13:51:24.480Z,12.76
2022-09-26T13:54:00.195Z,12.80
2022-09-26T13:56:47.380Z,12.63
2022-09-26T13:59:36.134Z,12.73
2022-09-26T14:02:23.602Z,12.64
2022-09-26T14:04:53.932Z,12.65
2022-09-26T14:07:44.888Z,12.72
2022-09-26T14:10:22.485Z,12.74
2022-09-26T14:13:06.819Z,12.61
2022-09-26T14:16:01.510Z,12.35
2022-09-26T14:18:45.366Z,12.27
2022-09-26T14:21:24.252Z,12.42
2022-09-26T14:24:32.922Z,12.49
2022-09-26T14:27:28.747Z,12.50
2022-09-26T14:30:08.676Z,12.58
2022-09-26T14:32:39.489Z,12.50
2022-09-26T14:35:20.145Z,12.55
2022-09-26T14:37:51.651Z,12.61
2022-09-26T14:40:30.468Z,12.46
2022-09-26T14:43:04.487Z,12.67
2022-09-26T14:45:48.653Z,12.69
2022-09-26T14:48:36.051Z,12.59
2022-09-26T14:51:06.583Z,12.64
2022-09-26T14:53:41.643Z,12.64
2022-09-26T14:56:15.525Z,12.77
2022-09-26T14:58:52.837Z,12.73
2022-09-26T15:01:27.532Z,12.85
2022-09-26T15:03:59.012Z,12.70
2022-09-26T15:06:29.956Z,12.69
2022-09-26T15:08:59.858Z,12.58
2022-09-26T15:11:34.895Z,12.56
2022-09-26T15:14:15.205Z,12.56
2022-09-26T15:16:51.387Z,12.63
2022-09-26T15:19:24.489Z,12.61
2022-09-26T15:22:00.264Z,12.64
2022-09-26T15:24:30.458Z,12.71
2022-09-26T15:27:01.752Z,12.72
2022-09-26T15:29:30.205Z,12.73
2022-09-26T15:32:01.438Z,12.72
2022-09-26T15:34:35.208Z,12.67
2022-09-26T15:37:11.732Z,12.85
2022-09-26T15:39:42.862Z,12.96
2022-09-26T15:42:47.254Z,13.04
2022-09-26T15:45:30.728Z,12.98
2022-09-26T15:48:04.049Z,12.99
2022-09-26T15:50:41.931Z,12.94
2022-09-26T15:53:24.087Z,12.97
2022-09-26T15:55:57.599Z,12.98
2022-09-26T15:58:37.150Z,12.95
2022-09-26T16:01:06.649Z,12.94
2022-09-26T16:03:48.476Z,12.97
2022-09-26T16:06:25.696Z,12.97
2022-09-26T16:08:57.629Z,12.93
2022-09-26T16:11:28.004Z,12.93
2022-09-26T16:13:58.519Z,12.89
2022-09-26T16:16:32.134Z,12.84
2022-09-26T16:19:05.465Z,12.86
2022-09-26T16:21:37.775Z,12.86
2022-09-26T16:24:31.305Z,12.80
2022-09-26T16:26:59.471Z,12.87
2022-09-26T16:29:31.314Z,12.83
2022-09-26T16:31:59.842Z,12.85
2022-09-26T16:34:30.299Z,12.79
2022-09-26T16:37:00.102Z,12.82
2022-09-26T16:39:30.117Z,12.79
2022-09-26T16:42:03.187Z,12.74
2022-09-26T16:44:36.198Z,12.69
2022-09-26T16:47:06.980Z,12.64
2022-09-26T16:49:45.831Z,12.83
2022-09-26T16:52:31.415Z,12.86
2022-09-26T16:55:02.034Z,12.81
2022-09-26T16:57:32.522Z,12.82
2022-09-26T17:00:16.846Z,12.77
2022-09-26T17:02:45.872Z,12.67
2022-09-26T17:05:20.966Z,12.70
2022-09-26T17:07:50.929Z,12.81
2022-09-26T17:10:23.137Z,12.65
2022-09-26T17:12:53.206Z,12.71
2022-09-26T17:15:28.151Z,12.73
2022-09-26T17:18:01.867Z,12.74
2022-09-26T17:20:33.498Z,12.70
2022-09-26T17:23:21.974Z,12.72
2022-09-26T17:25:56.835Z,12.64
2022-09-26T17:28:31.505Z,12.61
2022-09-26T17:31:06.531Z,12.41
2022-09-26T17:33:39.477Z,12.51
2022-09-26T17:36:16.952Z,12.47
2022-09-26T17:38:45.448Z,12.43
2022-09-26T17:41:13.718Z,12.33
2022-09-26T17:43:42.848Z,12.26
2022-09-26T17:46:15.846Z,12.30
2022-09-26T17:48:45.433Z,12.27
2022-09-26T17:51:15.981Z,12.42
2022-09-26T17:53:50.934Z,12.37
2022-09-26T17:56:20.037Z,12.49
2022-09-26T17:58:49.817Z,12.41
2022-09-26T18:01:24.232Z,12.38
2022-09-26T18:03:55.774Z,12.19
2022-09-26T18:06:31.685Z,12.48
2022-09-26T18:09:07.722Z,12.42
2022-09-26T18:11:38.166Z,12.19
2022-09-26T18:14:08.255Z,12.15
2022-09-26T18:16:36.666Z,12.09
2022-09-26T18:19:07.898Z,12.05
2022-09-26T18:21:38.963Z,11.99
2022-09-26T18:24:18.610Z,11.83
2022-09-26T18:26:51.044Z,11.82
2022-09-26T18:29:27.776Z,11.75
2022-09-26T18:31:56.743Z,11.67
2022-09-26T18:34:26.179Z,11.65
2022-09-26T18:37:00.242Z,11.66
2022-09-26T18:39:29.307Z,11.66
2022-09-26T18:42:03.308Z,11.77
2022-09-26T18:44:35.519Z,11.69
2022-09-26T18:47:06.371Z,11.68
2022-09-26T18:49:37.737Z,11.71
2022-09-26T18:52:12.777Z,11.72
2022-09-26T18:54:44.116Z,11.73
2022-09-26T18:57:30.220Z,11.73
2022-09-26T18:59:59.316Z,11.75
2022-09-26T19:02:42.314Z,11.74
2022-09-26T19:05:16.649Z,11.81
2022-09-26T19:07:46.784Z,11.92
2022-09-26T19:10:17.554Z,11.75
2022-09-26T19:12:46.333Z,11.63
2022-09-26T19:15:15.775Z,11.75
2022-09-26T19:17:44.166Z,11.70
2022-09-26T19:20:12.545Z,11.64
2022-09-26T19:22:40.880Z,11.66
2022-09-26T19:25:12.233Z,11.71
2022-09-26T19:27:47.268Z,11.79
2022-09-26T19:30:17.949Z,11.67
2022-09-26T19:32:49.556Z,11.62
2022-09-26T19:35:24.307Z,11.52
2022-09-26T19:37:52.825Z,11.39
2022-09-26T19:40:23.848Z,11.38
2022-09-26T19:42:52.642Z,11.33
2022-09-26T19:45:22.010Z,11.30
2022-09-26T19:47:54.412Z,11.21
2022-09-26T19:50:24.248Z,11.08
2022-09-26T19:52:54.406Z,11.20
2022-09-26T19:55:25.957Z,11.23
2022-09-26T19:57:55.082Z,11.15
2022-09-26T20:00:23.979Z,11.07
2022-09-26T20:02:54.803Z,11.01
2022-09-26T20:05:26.110Z,11.05
2022-09-26T20:07:55.107Z,11.00
2022-09-26T20:10:28.815Z,10.96
2022-09-26T20:12:57.977Z,10.89
2022-09-26T20:15:29.049Z,10.94
2022-09-26T20:17:58.653Z,10.86
2022-09-26T20:20:28.808Z,10.74
2022-09-26T20:22:57.917Z,10.78
2022-09-26T20:25:31.931Z,10.71
2022-09-26T20:28:00.801Z,10.71
2022-09-26T20:30:47.160Z,10.66
2022-09-26T20:33:15.438Z,10.68
2022-09-26T20:35:47.894Z,10.68
2022-09-26T20:38:25.565Z,10.65
2022-09-26T20:41:00.852Z,10.67
2022-09-26T20:43:34.222Z,10.70
2022-09-26T20:46:06.496Z,10.71
2022-09-26T20:48:37.224Z,10.70
2022-09-26T20:51:08.531Z,10.70
2022-09-26T20:53:38.000Z,10.66
2022-09-26T20:56:14.220Z,10.67
2022-09-26T20:58:42.567Z,10.63
2022-09-26T21:01:16.937Z,10.59
2022-09-26T21:03:52.282Z,10.58
2022-09-26T21:06:23.700Z,10.53
2022-09-26T21:08:52.367Z,10.49
2022-09-26T21:11:26.294Z,10.59
2022-09-26T21:13:56.088Z,10.48
2022-09-26T21:16:24.523Z,10.49
2022-09-26T21:18:55.888Z,10.47
2022-09-26T21:21:27.503Z,10.50
2022-09-26T21:23:59.779Z,10.51
2022-09-26T21:26:31.736Z,10.50
2022-09-26T21:29:00.292Z,10.47
2022-09-26T21:31:32.283Z,10.47
2022-09-26T21:34:02.069Z,10.37
2022-09-26T21:36:35.018Z,10.47
2022-09-26T21:39:04.187Z,10.44
2022-09-26T21:41:35.910Z,10.40
2022-09-26T21:44:14.617Z,10.33
2022-09-26T21:46:46.435Z,10.36
2022-09-26T21:49:15.015Z,10.39
2022-09-26T21:51:45.431Z,10.37
2022-09-26T21:54:20.891Z,10.30
2022-09-26T21:56:53.673Z,10.32
2022-09-26T21:59:24.252Z,10.36
2022-09-26T22:01:52.815Z,10.35
2022-09-26T22:04:22.599Z,10.35
2022-09-26T22:06:53.632Z,10.32
2022-09-26T22:09:22.923Z,10.36
2022-09-26T22:11:53.048Z,10.35
2022-09-26T22:14:21.464Z,10.33
2022-09-26T22:16:50.222Z,10.35
2022-09-26T22:19:19.042Z,10.40
2022-09-26T22:21:47.691Z,10.36
2022-09-26T22:24:19.877Z,10.39
2022-09-26T22:26:53.905Z,10.38
2022-09-26T22:29:22.464Z,10.46
2022-09-26T22:31:56.363Z,10.42
2022-09-26T22:34:26.112Z,10.38
2022-09-26T22:36:54.696Z,10.41
2022-09-26T22:39:28.326Z,10.35
2022-09-26T22:42:04.455Z,10.34
2022-09-26T22:44:33.136Z,10.39
2022-09-26T22:47:02.514Z,10.37
2022-09-26T22:49:33.784Z,10.34
2022-09-26T22:52:03.213Z,10.32
2022-09-26T22:54:31.444Z,10.36
2022-09-26T22:56:59.870Z,10.40
2022-09-26T22:59:30.148Z,10.33
2022-09-26T23:01:59.137Z,10.39
2022-09-26T23:04:47.065Z,10.35
2022-09-26T23:07:16.665Z,10.41
2022-09-26T23:09:47.047Z,10.32
2022-09-26T23:12:16.253Z,10.35
2022-09-26T23:14:46.657Z,10.15
2022-09-26T23:17:15.493Z,10.23
2022-09-26T23:19:45.593Z,10.30
2022-09-26T23:22:18.929Z,10.29
2022-09-26T23:24:47.580Z,10.25
2022-09-26T23:27:16.426Z,10.31
2022-09-26T23:29:46.530Z,10.13
2022-09-26T23:32:14.724Z,10.23
2022-09-26T23:34:46.019Z,10.25
2022-09-26T23:37:14.412Z,10.19
2022-09-26T23:39:43.898Z,10.20
2022-09-26T23:42:12.272Z,10.17
2022-09-26T23:44:40.711Z,10.28
2022-09-26T23:47:10.723Z,10.30
2022-09-26T23:49:39.114Z,10.14
2022-09-26T23:52:07.391Z,10.14
2022-09-26T23:54:36.876Z,10.05
2022-09-26T23:57:05.549Z,10.08
2022-09-26T23:59:36.529Z,10.19
